sensor_id;sensor_type;location;lat;lon;timestamp;temperature;humidity
27573;DHT22;15009;53.082;8.768;2022-08-03T00:01:44;22.30;99.90
27573;DHT22;15009;53.082;8.768;2022-08-03T00:04:46;22.20;99.90
27573;DHT22;15009;53.082;8.768;2022-08-03T00:07:46;22.10;99.90
27573;DHT22;15009;53.082;8.768;2022-08-03T00:10:47;22.10;99.90
27573;DHT22;15009;53.082;8.768;2022-08-03T00:13:48;22.10;99.90
27573;DHT22;15009;53.082;8.768;2022-08-03T00:16:48;22.00;99.90
27573;DHT22;15009;53.082;8.768;2022-08-03T00:19:49;22.00;99.90
27573;DHT22;15009;53.082;8.768;2022-08-03T00:22:50;22.00;99.90
27573;DHT22;15009;53.082;8.768;2022-08-03T00:25:50;22.00;99.90
27573;DHT22;15009;53.082;8.768;2022-08-03T00:28:51;21.90;99.90
27573;DHT22;15009;53.082;8.768;2022-08-03T00:31:51;21.90;99.90
27573;DHT22;15009;53.082;8.768;2022-08-03T00:34:52;21.90;99.90
27573;DHT22;15009;53.082;8.768;2022-08-03T00:37:53;21.90;99.90
27573;DHT22;15009;53.082;8.768;2022-08-03T00:40:54;21.90;99.90
27573;DHT22;15009;53.082;8.768;2022-08-03T00:43:55;21.80;99.90
27573;DHT22;15009;53.082;8.768;2022-08-03T00:46:56;21.70;99.90
27573;DHT22;15009;53.082;8.768;2022-08-03T00:49:57;21.60;99.90
27573;DHT22;15009;53.082;8.768;2022-08-03T00:52:58;21.60;99.90
27573;DHT22;15009;53.082;8.768;2022-08-03T00:55:59;21.60;99.90
27573;DHT22;15009;53.082;8.768;2022-08-03T00:59:00;21.60;99.90
27573;DHT22;15009;53.082;8.768;2022-08-03T01:02:01;21.60;99.90
27573;DHT22;15009;53.082;8.768;2022-08-03T01:05:02;21.60;99.90
27573;DHT22;15009;53.082;8.768;2022-08-03T01:08:15;21.60;99.90
27573;DHT22;15009;53.082;8.768;2022-08-03T01:14:43;21.50;99.90
27573;DHT22;15009;53.082;8.768;2022-08-03T01:18:05;21.50;99.90
27573;DHT22;15009;53.082;8.768;2022-08-03T01:21:11;21.50;99.90
27573;DHT22;15009;53.082;8.768;2022-08-03T01:31:22;21.40;99.90
27573;DHT22;15009;53.082;8.768;2022-08-03T01:34:28;21.40;99.90
27573;DHT22;15009;53.082;8.768;2022-08-03T01:37:37;21.30;99.90
27573;DHT22;15009;53.082;8.768;2022-08-03T01:40:40;21.30;99.90
27573;DHT22;15009;53.082;8.768;2022-08-03T01:43:43;21.20;99.90
27573;DHT22;15009;53.082;8.768;2022-08-03T01:46:48;21.30;99.90
27573;DHT22;15009;53.082;8.768;2022-08-03T01:49:51;21.20;99.90
27573;DHT22;15009;53.082;8.768;2022-08-03T01:52:53;21.10;99.90
27573;DHT22;15009;53.082;8.768;2022-08-03T01:55:56;21.10;99.90
27573;DHT22;15009;53.082;8.768;2022-08-03T01:59:00;21.10;99.90
27573;DHT22;15009;53.082;8.768;2022-08-03T02:02:05;21.10;99.90
27573;DHT22;15009;53.082;8.768;2022-08-03T02:05:08;21.00;99.90
27573;DHT22;15009;53.082;8.768;2022-08-03T02:08:10;21.00;99.90
27573;DHT22;15009;53.082;8.768;2022-08-03T02:11:12;20.90;99.90
27573;DHT22;15009;53.082;8.768;2022-08-03T02:14:13;20.90;99.90
27573;DHT22;15009;53.082;8.768;2022-08-03T02:17:15;20.90;99.90
27573;DHT22;15009;53.082;8.768;2022-08-03T02:20:16;20.90;99.90
27573;DHT22;15009;53.082;8.768;2022-08-03T02:23:17;20.80;99.90
27573;DHT22;15009;53.082;8.768;2022-08-03T02:26:19;20.90;99.90
27573;DHT22;15009;53.082;8.768;2022-08-03T02:29:24;20.80;99.90
27573;DHT22;15009;53.082;8.768;2022-08-03T02:32:31;20.90;99.90
27573;DHT22;15009;53.082;8.768;2022-08-03T02:35:33;20.80;99.90
27573;DHT22;15009;53.082;8.768;2022-08-03T02:38:38;20.80;99.90
27573;DHT22;15009;53.082;8.768;2022-08-03T02:41:48;20.80;99.90
27573;DHT22;15009;53.082;8.768;2022-08-03T02:44:50;20.80;99.90
27573;DHT22;15009;53.082;8.768;2022-08-03T02:47:57;20.80;99.90
27573;DHT22;15009;53.082;8.768;2022-08-03T02:51:00;20.80;99.90
27573;DHT22;15009;53.082;8.768;2022-08-03T02:54:03;20.80;99.90
27573;DHT22;15009;53.082;8.768;2022-08-03T02:57:06;20.70;99.90
27573;DHT22;15009;53.082;8.768;2022-08-03T03:00:09;20.60;99.90
27573;DHT22;15009;53.082;8.768;2022-08-03T03:03:10;20.60;99.90
27573;DHT22;15009;53.082;8.768;2022-08-03T03:06:11;20.60;99.90
27573;DHT22;15009;53.082;8.768;2022-08-03T03:09:12;20.60;99.90
27573;DHT22;15009;53.082;8.768;2022-08-03T03:12:14;20.50;99.90
27573;DHT22;15009;53.082;8.768;2022-08-03T03:15:15;20.50;99.90
27573;DHT22;15009;53.082;8.768;2022-08-03T03:18:20;20.40;99.90
27573;DHT22;15009;53.082;8.768;2022-08-03T03:21:21;20.30;99.90
27573;DHT22;15009;53.082;8.768;2022-08-03T03:24:22;20.30;99.90
27573;DHT22;15009;53.082;8.768;2022-08-03T03:27:23;20.20;99.90
27573;DHT22;15009;53.082;8.768;2022-08-03T03:30:25;20.20;99.90
27573;DHT22;15009;53.082;8.768;2022-08-03T03:33:26;20.20;99.90
27573;DHT22;15009;53.082;8.768;2022-08-03T03:36:26;20.30;99.90
27573;DHT22;15009;53.082;8.768;2022-08-03T03:39:27;20.30;99.90
27573;DHT22;15009;53.082;8.768;2022-08-03T03:42:28;20.30;99.90
27573;DHT22;15009;53.082;8.768;2022-08-03T03:45:30;20.30;99.90
27573;DHT22;15009;53.082;8.768;2022-08-03T03:48:30;20.30;99.90
27573;DHT22;15009;53.082;8.768;2022-08-03T03:51:31;20.20;99.90
27573;DHT22;15009;53.082;8.768;2022-08-03T03:54:42;20.30;99.90
27573;DHT22;15009;53.082;8.768;2022-08-03T03:57:43;20.30;99.90
27573;DHT22;15009;53.082;8.768;2022-08-03T04:00:44;20.30;99.90
27573;DHT22;15009;53.082;8.768;2022-08-03T04:03:45;20.30;99.90
27573;DHT22;15009;53.082;8.768;2022-08-03T04:06:46;20.30;99.90
27573;DHT22;15009;53.082;8.768;2022-08-03T04:10:12;20.30;99.90
27573;DHT22;15009;53.082;8.768;2022-08-03T04:13:39;20.40;99.90
27573;DHT22;15009;53.082;8.768;2022-08-03T04:16:46;20.40;99.90
27573;DHT22;15009;53.082;8.768;2022-08-03T04:19:49;20.40;99.90
27573;DHT22;15009;53.082;8.768;2022-08-03T04:22:52;20.40;99.90
27573;DHT22;15009;53.082;8.768;2022-08-03T04:25:54;20.50;99.90
27573;DHT22;15009;53.082;8.768;2022-08-03T04:28:56;20.50;99.90
27573;DHT22;15009;53.082;8.768;2022-08-03T04:31:59;20.50;99.90
27573;DHT22;15009;53.082;8.768;2022-08-03T04:35:00;20.50;99.90
27573;DHT22;15009;53.082;8.768;2022-08-03T04:38:04;20.40;99.90
27573;DHT22;15009;53.082;8.768;2022-08-03T04:41:06;20.40;99.90
27573;DHT22;15009;53.082;8.768;2022-08-03T04:44:08;20.50;99.90
27573;DHT22;15009;53.082;8.768;2022-08-03T04:47:09;20.60;99.90
27573;DHT22;15009;53.082;8.768;2022-08-03T04:50:10;20.70;99.90
27573;DHT22;15009;53.082;8.768;2022-08-03T04:53:11;20.80;99.90
27573;DHT22;15009;53.082;8.768;2022-08-03T04:56:12;21.00;99.90
27573;DHT22;15009;53.082;8.768;2022-08-03T04:59:13;21.40;99.90
27573;DHT22;15009;53.082;8.768;2022-08-03T05:02:13;22.40;99.90
27573;DHT22;15009;53.082;8.768;2022-08-03T05:05:16;26.60;99.90
27573;DHT22;15009;53.082;8.768;2022-08-03T05:08:16;29.60;99.90
27573;DHT22;15009;53.082;8.768;2022-08-03T05:11:17;31.30;99.90
27573;DHT22;15009;53.082;8.768;2022-08-03T05:14:18;33.10;92.60
27573;DHT22;15009;53.082;8.768;2022-08-03T05:17:19;33.50;89.10
27573;DHT22;15009;53.082;8.768;2022-08-03T05:20:20;34.20;84.60
27573;DHT22;15009;53.082;8.768;2022-08-03T05:23:20;34.50;81.00
27573;DHT22;15009;53.082;8.768;2022-08-03T05:26:21;35.40;76.80
27573;DHT22;15009;53.082;8.768;2022-08-03T05:29:22;36.50;73.40
27573;DHT22;15009;53.082;8.768;2022-08-03T05:32:22;36.90;71.20
27573;DHT22;15009;53.082;8.768;2022-08-03T05:38:35;37.00;67.70
27573;DHT22;15009;53.082;8.768;2022-08-03T05:41:36;37.60;66.70
27573;DHT22;15009;53.082;8.768;2022-08-03T05:44:36;36.40;67.10
27573;DHT22;15009;53.082;8.768;2022-08-03T05:47:38;35.80;68.30
27573;DHT22;15009;53.082;8.768;2022-08-03T05:50:38;36.40;67.50
27573;DHT22;15009;53.082;8.768;2022-08-03T05:53:40;36.70;67.30
27573;DHT22;15009;53.082;8.768;2022-08-03T05:56:41;36.80;67.00
27573;DHT22;15009;53.082;8.768;2022-08-03T05:59:41;38.40;64.90
27573;DHT22;15009;53.082;8.768;2022-08-03T06:02:42;37.50;63.80
27573;DHT22;15009;53.082;8.768;2022-08-03T06:05:43;36.50;64.70
27573;DHT22;15009;53.082;8.768;2022-08-03T06:08:44;35.30;66.90
27573;DHT22;15009;53.082;8.768;2022-08-03T06:11:45;34.60;68.70
27573;DHT22;15009;53.082;8.768;2022-08-03T06:14:45;34.40;68.80
27573;DHT22;15009;53.082;8.768;2022-08-03T06:17:48;34.30;68.90
27573;DHT22;15009;53.082;8.768;2022-08-03T06:20:49;33.80;70.20
27573;DHT22;15009;53.082;8.768;2022-08-03T06:23:50;33.30;72.20
27573;DHT22;15009;53.082;8.768;2022-08-03T06:26:50;33.40;72.00
27573;DHT22;15009;53.082;8.768;2022-08-03T06:29:51;33.70;71.40
27573;DHT22;15009;53.082;8.768;2022-08-03T06:32:51;34.40;70.20
27573;DHT22;15009;53.082;8.768;2022-08-03T06:35:52;34.80;68.90
27573;DHT22;15009;53.082;8.768;2022-08-03T06:38:53;35.40;68.20
27573;DHT22;15009;53.082;8.768;2022-08-03T06:41:53;35.20;69.00
27573;DHT22;15009;53.082;8.768;2022-08-03T06:44:54;35.40;68.30
27573;DHT22;15009;53.082;8.768;2022-08-03T06:48:07;36.20;66.80
27573;DHT22;15009;53.082;8.768;2022-08-03T06:51:08;36.20;66.10
27573;DHT22;15009;53.082;8.768;2022-08-03T06:54:09;36.70;66.20
27573;DHT22;15009;53.082;8.768;2022-08-03T06:57:10;37.70;65.10
27573;DHT22;15009;53.082;8.768;2022-08-03T07:00:11;38.00;63.60
27573;DHT22;15009;53.082;8.768;2022-08-03T07:03:12;37.30;63.90
27573;DHT22;15009;53.082;8.768;2022-08-03T07:06:12;37.80;64.30
27573;DHT22;15009;53.082;8.768;2022-08-03T07:09:13;37.90;64.00
27573;DHT22;15009;53.082;8.768;2022-08-03T07:12:13;37.80;63.10
27573;DHT22;15009;53.082;8.768;2022-08-03T07:15:14;37.10;64.70
27573;DHT22;15009;53.082;8.768;2022-08-03T07:18:14;37.60;63.70
27573;DHT22;15009;53.082;8.768;2022-08-03T07:21:15;36.60;65.90
27573;DHT22;15009;53.082;8.768;2022-08-03T07:24:16;36.70;65.80
27573;DHT22;15009;53.082;8.768;2022-08-03T07:27:16;37.40;64.50
27573;DHT22;15009;53.082;8.768;2022-08-03T07:30:17;37.60;64.80
27573;DHT22;15009;53.082;8.768;2022-08-03T07:33:18;37.70;64.20
27573;DHT22;15009;53.082;8.768;2022-08-03T07:36:19;38.70;63.30
27573;DHT22;15009;53.082;8.768;2022-08-03T07:39:19;38.50;62.60
27573;DHT22;15009;53.082;8.768;2022-08-03T07:42:20;37.90;64.10
27573;DHT22;15009;53.082;8.768;2022-08-03T07:45:22;37.30;64.70
27573;DHT22;15009;53.082;8.768;2022-08-03T07:48:23;37.70;65.40
27573;DHT22;15009;53.082;8.768;2022-08-03T07:51:24;38.10;64.20
27573;DHT22;15009;53.082;8.768;2022-08-03T07:54:25;37.70;63.90
27573;DHT22;15009;53.082;8.768;2022-08-03T07:57:25;36.00;67.10
27573;DHT22;15009;53.082;8.768;2022-08-03T08:00:26;35.80;68.20
27573;DHT22;15009;53.082;8.768;2022-08-03T08:03:27;36.50;67.00
27573;DHT22;15009;53.082;8.768;2022-08-03T08:06:27;37.60;65.40
27573;DHT22;15009;53.082;8.768;2022-08-03T08:09:28;39.40;62.20
27573;DHT22;15009;53.082;8.768;2022-08-03T08:12:30;40.10;60.80
27573;DHT22;15009;53.082;8.768;2022-08-03T08:15:31;39.30;62.10
27573;DHT22;15009;53.082;8.768;2022-08-03T08:18:31;39.10;62.50
27573;DHT22;15009;53.082;8.768;2022-08-03T08:21:32;37.20;64.10
27573;DHT22;15009;53.082;8.768;2022-08-03T08:24:32;36.40;66.30
27573;DHT22;15009;53.082;8.768;2022-08-03T08:27:40;36.60;65.70
27573;DHT22;15009;53.082;8.768;2022-08-03T08:30:41;36.40;67.00
27573;DHT22;15009;53.082;8.768;2022-08-03T08:33:41;36.50;66.40
27573;DHT22;15009;53.082;8.768;2022-08-03T08:36:42;37.20;65.80
27573;DHT22;15009;53.082;8.768;2022-08-03T08:39:43;38.00;64.30
27573;DHT22;15009;53.082;8.768;2022-08-03T08:42:43;38.20;63.50
27573;DHT22;15009;53.082;8.768;2022-08-03T08:45:47;39.20;61.20
27573;DHT22;15009;53.082;8.768;2022-08-03T08:48:49;40.90;59.30
27573;DHT22;15009;53.082;8.768;2022-08-03T08:51:51;41.60;58.50
27573;DHT22;15009;53.082;8.768;2022-08-03T08:55:04;41.90;56.90
27573;DHT22;15009;53.082;8.768;2022-08-03T08:58:05;41.70;57.90
27573;DHT22;15009;53.082;8.768;2022-08-03T09:01:05;41.40;56.90
27573;DHT22;15009;53.082;8.768;2022-08-03T09:04:06;40.30;58.20
27573;DHT22;15009;53.082;8.768;2022-08-03T09:07:08;40.10;58.80
27573;DHT22;15009;53.082;8.768;2022-08-03T09:10:11;40.80;57.70
27573;DHT22;15009;53.082;8.768;2022-08-03T09:13:12;40.40;57.50
27573;DHT22;15009;53.082;8.768;2022-08-03T09:16:18;40.10;58.30
27573;DHT22;15009;53.082;8.768;2022-08-03T09:19:19;40.90;57.60
27573;DHT22;15009;53.082;8.768;2022-08-03T09:22:19;41.00;56.30
27573;DHT22;15009;53.082;8.768;2022-08-03T09:25:46;40.40;57.30
27573;DHT22;15009;53.082;8.768;2022-08-03T09:28:54;40.90;57.10
27573;DHT22;15009;53.082;8.768;2022-08-03T09:32:02;40.20;58.80
27573;DHT22;15009;53.082;8.768;2022-08-03T09:35:03;38.40;60.70
27573;DHT22;15009;53.082;8.768;2022-08-03T09:38:14;36.90;63.20
27573;DHT22;15009;53.082;8.768;2022-08-03T09:41:18;35.90;64.50
27573;DHT22;15009;53.082;8.768;2022-08-03T09:44:33;35.90;65.10
27573;DHT22;15009;53.082;8.768;2022-08-03T09:47:35;35.20;66.30
27573;DHT22;15009;53.082;8.768;2022-08-03T09:50:46;34.60;67.70
27573;DHT22;15009;53.082;8.768;2022-08-03T09:53:47;34.60;68.60
27573;DHT22;15009;53.082;8.768;2022-08-03T09:56:48;34.40;69.20
27573;DHT22;15009;53.082;8.768;2022-08-03T09:59:49;34.70;68.40
27573;DHT22;15009;53.082;8.768;2022-08-03T10:03:03;34.20;68.00
27573;DHT22;15009;53.082;8.768;2022-08-03T10:06:18;33.80;68.90
27573;DHT22;15009;53.082;8.768;2022-08-03T10:09:18;33.60;69.30
27573;DHT22;15009;53.082;8.768;2022-08-03T10:12:20;33.40;69.60
27573;DHT22;15009;53.082;8.768;2022-08-03T10:15:20;33.40;70.40
27573;DHT22;15009;53.082;8.768;2022-08-03T10:18:21;33.60;70.00
27573;DHT22;15009;53.082;8.768;2022-08-03T10:21:22;33.60;70.40
27573;DHT22;15009;53.082;8.768;2022-08-03T10:24:28;33.50;70.10
27573;DHT22;15009;53.082;8.768;2022-08-03T10:27:41;33.50;69.40
27573;DHT22;15009;53.082;8.768;2022-08-03T10:30:50;33.50;69.50
27573;DHT22;15009;53.082;8.768;2022-08-03T10:33:55;33.40;69.20
27573;DHT22;15009;53.082;8.768;2022-08-03T10:36:58;33.50;70.10
27573;DHT22;15009;53.082;8.768;2022-08-03T10:39:59;33.40;70.00
27573;DHT22;15009;53.082;8.768;2022-08-03T10:43:08;33.40;70.70
27573;DHT22;15009;53.082;8.768;2022-08-03T10:46:09;33.60;70.00
27573;DHT22;15009;53.082;8.768;2022-08-03T10:49:14;33.20;70.10
27573;DHT22;15009;53.082;8.768;2022-08-03T10:52:15;33.10;70.80
27573;DHT22;15009;53.082;8.768;2022-08-03T10:55:35;33.40;71.30
27573;DHT22;15009;53.082;8.768;2022-08-03T10:58:54;33.40;70.00
27573;DHT22;15009;53.082;8.768;2022-08-03T11:01:55;33.40;70.10
27573;DHT22;15009;53.082;8.768;2022-08-03T11:05:29;33.40;71.40
27573;DHT22;15009;53.082;8.768;2022-08-03T11:08:32;33.60;70.50
27573;DHT22;15009;53.082;8.768;2022-08-03T11:11:35;33.50;70.10
27573;DHT22;15009;53.082;8.768;2022-08-03T11:14:46;33.30;70.10
27573;DHT22;15009;53.082;8.768;2022-08-03T11:18:08;33.00;70.60
27573;DHT22;15009;53.082;8.768;2022-08-03T11:21:12;32.60;70.40
27573;DHT22;15009;53.082;8.768;2022-08-03T11:27:33;32.60;70.30
27573;DHT22;15009;53.082;8.768;2022-08-03T11:30:33;32.70;70.30
27573;DHT22;15009;53.082;8.768;2022-08-03T11:33:34;32.50;70.60
27573;DHT22;15009;53.082;8.768;2022-08-03T11:46:37;32.70;68.50
27573;DHT22;15009;53.082;8.768;2022-08-03T11:49:38;32.70;69.50
27573;DHT22;15009;53.082;8.768;2022-08-03T11:52:40;32.60;70.20
27573;DHT22;15009;53.082;8.768;2022-08-03T11:55:41;32.50;70.30
27573;DHT22;15009;53.082;8.768;2022-08-03T11:58:48;32.40;71.00
27573;DHT22;15009;53.082;8.768;2022-08-03T12:01:49;32.50;70.90
27573;DHT22;15009;53.082;8.768;2022-08-03T12:04:57;32.60;68.40
27573;DHT22;15009;53.082;8.768;2022-08-03T12:08:00;32.70;68.60
27573;DHT22;15009;53.082;8.768;2022-08-03T12:11:04;32.50;69.70
27573;DHT22;15009;53.082;8.768;2022-08-03T12:14:05;32.70;70.00
27573;DHT22;15009;53.082;8.768;2022-08-03T12:17:06;32.70;69.00
27573;DHT22;15009;53.082;8.768;2022-08-03T12:20:08;32.80;69.40
27573;DHT22;15009;53.082;8.768;2022-08-03T12:23:09;32.80;69.80
27573;DHT22;15009;53.082;8.768;2022-08-03T12:26:10;33.00;69.40
27573;DHT22;15009;53.082;8.768;2022-08-03T12:29:18;33.00;70.00
27573;DHT22;15009;53.082;8.768;2022-08-03T12:32:19;32.90;70.30
27573;DHT22;15009;53.082;8.768;2022-08-03T12:35:23;32.80;70.70
27573;DHT22;15009;53.082;8.768;2022-08-03T12:38:23;32.50;70.20
27573;DHT22;15009;53.082;8.768;2022-08-03T12:41:32;32.50;71.20
27573;DHT22;15009;53.082;8.768;2022-08-03T12:44:35;32.50;70.80
27573;DHT22;15009;53.082;8.768;2022-08-03T12:51:09;32.50;71.20
27573;DHT22;15009;53.082;8.768;2022-08-03T12:54:21;32.60;71.70
27573;DHT22;15009;53.082;8.768;2022-08-03T12:57:22;32.70;72.10
27573;DHT22;15009;53.082;8.768;2022-08-03T13:00:23;32.80;71.70
27573;DHT22;15009;53.082;8.768;2022-08-03T13:03:26;32.80;71.80
27573;DHT22;15009;53.082;8.768;2022-08-03T13:06:26;32.50;71.50
27573;DHT22;15009;53.082;8.768;2022-08-03T13:09:28;32.40;72.00
27573;DHT22;15009;53.082;8.768;2022-08-03T13:12:29;32.30;72.20
27573;DHT22;15009;53.082;8.768;2022-08-03T13:15:31;32.50;72.50
27573;DHT22;15009;53.082;8.768;2022-08-03T13:18:31;32.50;71.60
27573;DHT22;15009;53.082;8.768;2022-08-03T13:21:32;32.50;71.50
27573;DHT22;15009;53.082;8.768;2022-08-03T13:24:32;32.50;69.60
27573;DHT22;15009;53.082;8.768;2022-08-03T13:27:33;32.50;69.20
27573;DHT22;15009;53.082;8.768;2022-08-03T13:30:33;32.50;68.80
27573;DHT22;15009;53.082;8.768;2022-08-03T13:33:34;32.50;69.70
27573;DHT22;15009;53.082;8.768;2022-08-03T13:36:35;32.50;69.30
27573;DHT22;15009;53.082;8.768;2022-08-03T13:39:35;32.50;68.50
27573;DHT22;15009;53.082;8.768;2022-08-03T13:42:36;32.60;69.00
27573;DHT22;15009;53.082;8.768;2022-08-03T13:45:37;32.70;69.30
27573;DHT22;15009;53.082;8.768;2022-08-03T13:48:38;32.60;69.40
27573;DHT22;15009;53.082;8.768;2022-08-03T13:51:38;32.50;68.80
27573;DHT22;15009;53.082;8.768;2022-08-03T13:54:39;32.60;69.10
27573;DHT22;15009;53.082;8.768;2022-08-03T13:57:39;32.70;69.20
27573;DHT22;15009;53.082;8.768;2022-08-03T14:00:40;32.70;69.10
27573;DHT22;15009;53.082;8.768;2022-08-03T14:03:41;32.70;68.70
27573;DHT22;15009;53.082;8.768;2022-08-03T14:06:41;32.70;69.00
27573;DHT22;15009;53.082;8.768;2022-08-03T14:09:44;32.80;68.70
27573;DHT22;15009;53.082;8.768;2022-08-03T14:12:45;32.60;68.60
27573;DHT22;15009;53.082;8.768;2022-08-03T14:15:46;32.60;69.30
27573;DHT22;15009;53.082;8.768;2022-08-03T14:18:47;32.40;69.60
27573;DHT22;15009;53.082;8.768;2022-08-03T14:21:47;32.30;68.50
27573;DHT22;15009;53.082;8.768;2022-08-03T14:24:48;32.20;68.00
27573;DHT22;15009;53.082;8.768;2022-08-03T14:27:49;32.20;68.20
27573;DHT22;15009;53.082;8.768;2022-08-03T14:30:53;32.20;68.50
27573;DHT22;15009;53.082;8.768;2022-08-03T14:33:55;32.10;68.20
27573;DHT22;15009;53.082;8.768;2022-08-03T14:36:55;32.10;68.20
27573;DHT22;15009;53.082;8.768;2022-08-03T14:39:56;31.80;68.50
27573;DHT22;15009;53.082;8.768;2022-08-03T14:42:56;31.80;69.70
27573;DHT22;15009;53.082;8.768;2022-08-03T14:45:57;31.60;69.30
27573;DHT22;15009;53.082;8.768;2022-08-03T14:48:58;31.60;69.70
27573;DHT22;15009;53.082;8.768;2022-08-03T14:51:58;31.60;70.30
27573;DHT22;15009;53.082;8.768;2022-08-03T14:54:59;31.80;69.90
27573;DHT22;15009;53.082;8.768;2022-08-03T14:58:00;32.00;69.60
27573;DHT22;15009;53.082;8.768;2022-08-03T15:01:05;32.20;68.70
27573;DHT22;15009;53.082;8.768;2022-08-03T15:04:06;32.20;68.10
27573;DHT22;15009;53.082;8.768;2022-08-03T15:07:07;32.30;68.40
27573;DHT22;15009;53.082;8.768;2022-08-03T15:10:07;32.20;68.20
27573;DHT22;15009;53.082;8.768;2022-08-03T15:13:08;32.20;68.70
27573;DHT22;15009;53.082;8.768;2022-08-03T15:16:09;32.20;69.20
27573;DHT22;15009;53.082;8.768;2022-08-03T15:19:09;32.00;68.90
27573;DHT22;15009;53.082;8.768;2022-08-03T15:22:10;32.00;68.90
27573;DHT22;15009;53.082;8.768;2022-08-03T15:25:10;32.00;68.10
27573;DHT22;15009;53.082;8.768;2022-08-03T15:28:12;32.00;69.10
27573;DHT22;15009;53.082;8.768;2022-08-03T15:31:12;32.10;68.70
27573;DHT22;15009;53.082;8.768;2022-08-03T15:34:13;32.20;69.20
27573;DHT22;15009;53.082;8.768;2022-08-03T15:37:14;32.40;68.80
27573;DHT22;15009;53.082;8.768;2022-08-03T15:40:14;32.40;68.20
27573;DHT22;15009;53.082;8.768;2022-08-03T15:43:15;32.30;67.90
27573;DHT22;15009;53.082;8.768;2022-08-03T15:46:15;32.20;68.40
27573;DHT22;15009;53.082;8.768;2022-08-03T15:49:16;32.00;68.10
27573;DHT22;15009;53.082;8.768;2022-08-03T15:52:17;31.90;68.30
27573;DHT22;15009;53.082;8.768;2022-08-03T15:55:17;31.80;68.50
27573;DHT22;15009;53.082;8.768;2022-08-03T15:58:18;31.90;69.20
27573;DHT22;15009;53.082;8.768;2022-08-03T16:01:18;31.90;69.20
27573;DHT22;15009;53.082;8.768;2022-08-03T16:04:20;31.90;68.70
27573;DHT22;15009;53.082;8.768;2022-08-03T16:07:21;31.70;70.20
27573;DHT22;15009;53.082;8.768;2022-08-03T16:10:41;31.60;70.10
27573;DHT22;15009;53.082;8.768;2022-08-03T16:13:42;31.70;69.20
27573;DHT22;15009;53.082;8.768;2022-08-03T16:16:42;31.70;69.10
27573;DHT22;15009;53.082;8.768;2022-08-03T16:19:43;31.80;69.50
27573;DHT22;15009;53.082;8.768;2022-08-03T16:22:46;31.80;70.00
27573;DHT22;15009;53.082;8.768;2022-08-03T16:25:46;31.80;69.40
27573;DHT22;15009;53.082;8.768;2022-08-03T16:28:47;31.90;69.20
27573;DHT22;15009;53.082;8.768;2022-08-03T16:31:48;32.10;69.30
27573;DHT22;15009;53.082;8.768;2022-08-03T16:34:48;32.10;68.40
27573;DHT22;15009;53.082;8.768;2022-08-03T16:37:49;32.10;68.60
27573;DHT22;15009;53.082;8.768;2022-08-03T16:40:50;32.00;68.50
27573;DHT22;15009;53.082;8.768;2022-08-03T16:43:51;32.00;69.00
27573;DHT22;15009;53.082;8.768;2022-08-03T16:46:51;31.80;68.70
27573;DHT22;15009;53.082;8.768;2022-08-03T16:49:52;31.70;69.50
27573;DHT22;15009;53.082;8.768;2022-08-03T16:52:52;31.50;69.50
27573;DHT22;15009;53.082;8.768;2022-08-03T16:55:53;31.40;69.20
27573;DHT22;15009;53.082;8.768;2022-08-03T16:58:54;31.30;69.60
27573;DHT22;15009;53.082;8.768;2022-08-03T17:01:54;31.20;69.90
27573;DHT22;15009;53.082;8.768;2022-08-03T17:04:55;31.20;70.30
27573;DHT22;15009;53.082;8.768;2022-08-03T17:07:57;31.20;70.70
27573;DHT22;15009;53.082;8.768;2022-08-03T17:10:57;31.20;71.20
27573;DHT22;15009;53.082;8.768;2022-08-03T17:13:58;31.10;71.20
27573;DHT22;15009;53.082;8.768;2022-08-03T17:17:00;31.10;70.40
27573;DHT22;15009;53.082;8.768;2022-08-03T17:20:06;31.00;70.70
27573;DHT22;15009;53.082;8.768;2022-08-03T17:23:38;31.00;71.10
27573;DHT22;15009;53.082;8.768;2022-08-03T17:26:41;30.80;71.70
27573;DHT22;15009;53.082;8.768;2022-08-03T17:29:47;30.60;74.40
27573;DHT22;15009;53.082;8.768;2022-08-03T17:32:48;30.50;73.70
27573;DHT22;15009;53.082;8.768;2022-08-03T17:35:49;30.40;73.40
27573;DHT22;15009;53.082;8.768;2022-08-03T17:38:54;30.40;73.10
27573;DHT22;15009;53.082;8.768;2022-08-03T17:41:55;30.40;72.80
27573;DHT22;15009;53.082;8.768;2022-08-03T17:45:00;30.40;72.70
27573;DHT22;15009;53.082;8.768;2022-08-03T17:48:01;30.30;72.50
27573;DHT22;15009;53.082;8.768;2022-08-03T17:55:26;30.40;72.90
27573;DHT22;15009;53.082;8.768;2022-08-03T17:59:00;30.40;73.20
27573;DHT22;15009;53.082;8.768;2022-08-03T18:02:32;30.30;73.60
27573;DHT22;15009;53.082;8.768;2022-08-03T18:05:56;30.30;73.90
27573;DHT22;15009;53.082;8.768;2022-08-03T18:08:58;30.30;74.10
27573;DHT22;15009;53.082;8.768;2022-08-03T18:12:00;30.20;75.40
27573;DHT22;15009;53.082;8.768;2022-08-03T18:15:04;30.10;73.70
27573;DHT22;15009;53.082;8.768;2022-08-03T18:18:06;30.10;72.80
27573;DHT22;15009;53.082;8.768;2022-08-03T18:21:07;30.10;73.00
27573;DHT22;15009;53.082;8.768;2022-08-03T18:24:09;30.10;72.80
27573;DHT22;15009;53.082;8.768;2022-08-03T18:27:14;30.10;72.40
27573;DHT22;15009;53.082;8.768;2022-08-03T18:30:18;30.10;72.00
27573;DHT22;15009;53.082;8.768;2022-08-03T18:33:19;30.00;72.30
27573;DHT22;15009;53.082;8.768;2022-08-03T18:36:20;30.00;73.00
27573;DHT22;15009;53.082;8.768;2022-08-03T18:39:21;29.90;72.50
27573;DHT22;15009;53.082;8.768;2022-08-03T18:42:22;29.80;73.70
27573;DHT22;15009;53.082;8.768;2022-08-03T18:45:23;29.70;76.60
27573;DHT22;15009;53.082;8.768;2022-08-03T18:48:47;29.50;78.60
27573;DHT22;15009;53.082;8.768;2022-08-03T18:52:03;29.30;83.30
27573;DHT22;15009;53.082;8.768;2022-08-03T18:55:31;29.00;84.70
27573;DHT22;15009;53.082;8.768;2022-08-03T19:01:49;28.50;88.30
27573;DHT22;15009;53.082;8.768;2022-08-03T19:04:52;28.30;90.00
27573;DHT22;15009;53.082;8.768;2022-08-03T19:07:57;28.10;91.00
27573;DHT22;15009;53.082;8.768;2022-08-03T19:11:01;27.90;92.40
27573;DHT22;15009;53.082;8.768;2022-08-03T19:14:04;27.60;94.40
27573;DHT22;15009;53.082;8.768;2022-08-03T19:17:08;27.40;98.00
27573;DHT22;15009;53.082;8.768;2022-08-03T19:20:09;27.20;99.90
27573;DHT22;15009;53.082;8.768;2022-08-03T19:23:10;27.10;99.90
27573;DHT22;15009;53.082;8.768;2022-08-03T19:26:11;26.90;99.90
27573;DHT22;15009;53.082;8.768;2022-08-03T19:29:13;26.80;99.90
27573;DHT22;15009;53.082;8.768;2022-08-03T19:32:16;26.60;99.90
27573;DHT22;15009;53.082;8.768;2022-08-03T19:35:18;26.50;99.90
27573;DHT22;15009;53.082;8.768;2022-08-03T19:38:19;26.40;99.90
27573;DHT22;15009;53.082;8.768;2022-08-03T19:41:20;26.30;99.90
27573;DHT22;15009;53.082;8.768;2022-08-03T19:44:27;26.20;99.90
27573;DHT22;15009;53.082;8.768;2022-08-03T19:47:34;26.20;99.90
27573;DHT22;15009;53.082;8.768;2022-08-03T19:50:36;26.10;99.90
27573;DHT22;15009;53.082;8.768;2022-08-03T19:53:40;26.00;99.90